Time;durP1;ratioP1;P1;durP2;ratioP2;P2;SDS_P1;SDS_P2;PMS_P1;PMS_P2;Temp;Humidity;BMP_temperature;BMP_pressure;BME280_temperature;BME280_humidity;BME280_pressure;Samples;Min_cycle;Max_cycle;Signal;HPM_P1;HPM_P2
2023/12/21 00:08:02;;;;;;;;;;;;;;;2.23;100.00;98229.83;435170;1256;127188;-65
2023/12/21 00:18:07;;;;;;;;;;;;;;;2.24;100.00;98224.80;435119;1251;125981;-66
2023/12/21 00:28:11;;;;;;;;;;;;;;;2.21;100.00;98217.30;435549;1254;126503;-64
2023/12/21 00:38:16;;;;;;;;;;;;;;;2.18;100.00;98200.57;434947;1255;125919;-65
2023/12/21 00:48:20;;;;;;;;;;;;;;;2.15;100.00;98193.15;435478;1251;126445;-65
2023/12/21 00:58:25;;;;;;;;;;;;;;;2.14;100.00;98187.48;435266;1254;125445;-66
2023/12/21 01:08:30;;;;;;;;;;;;;;;2.16;100.00;98184.46;436310;1254;126338;-65
2023/12/21 01:18:34;;;;;;;;;;;;;;;2.16;100.00;98184.08;436049;1251;127080;-66
2023/12/21 01:28:39;;;;;;;;;;;;;;;2.20;100.00;98163.68;435802;1251;127007;-65
2023/12/21 01:38:44;;;;;;;;;;;;;;;2.21;100.00;98145.14;435658;1254;127025;-65
2023/12/21 01:48:48;;;;;;;;;;;;;;;2.21;100.00;98136.33;435361;1254;126662;-66
2023/12/21 01:58:53;;;;;;;;;;;;;;;2.21;100.00;98122.56;435544;1254;126257;-65
2023/12/21 02:08:57;;;;;;;;;;;;;;;2.19;100.00;98115.20;435171;1251;125792;-65
2023/12/21 02:19:02;;;;;;;;;;;;;;;2.18;100.00;98094.92;435210;1254;126464;-64
2023/12/21 02:29:07;;;;;;;;;;;;;;;2.09;100.00;98075.17;436388;1251;125813;-64
2023/12/21 02:39:11;;;;;;;;;;;;;;;2.06;100.00;98047.67;435207;1254;125646;-66
2023/12/21 02:49:15;;;;;;;;;;;;;;;2.08;100.00;98026.55;436299;1251;125704;-66
2023/12/21 02:59:20;;;;;;;;;;;;;;;2.12;100.00;98003.05;435002;1250;126160;-65
2023/12/21 03:09:25;;;;;;;;;;;;;;;2.09;100.00;97977.79;435251;1251;126094;-65
2023/12/21 03:19:29;;;;;;;;;;;;;;;2.04;100.00;97949.63;435360;1251;125669;-64
2023/12/21 03:29:34;;;;;;;;;;;;;;;1.99;100.00;97932.13;435167;1254;126706;-64
2023/12/21 03:39:38;;;;;;;;;;;;;;;1.92;100.00;97918.99;435439;1254;125606;-66
2023/12/21 03:49:42;;;;;;;;;;;;;;;1.87;100.00;97891.34;435419;1251;126377;-66
2023/12/21 03:59:47;;;;;;;;;;;;;;;1.83;100.00;97869.66;435242;1251;126234;-66
2023/12/21 04:09:51;;;;;;;;;;;;;;;1.82;100.00;97844.02;435118;1256;126261;-65
2023/12/21 04:19:55;;;;;;;;;;;;;;;1.83;100.00;97814.09;435475;1254;134313;-65
2023/12/21 04:30:00;;;;;;;;;;;;;;;1.85;100.00;97784.14;435302;1252;126138;-65
2023/12/21 04:40:04;;;;;;;;;;;;;;;1.87;100.00;97750.36;435312;1253;126105;-65
2023/12/21 04:50:09;;;;;;;;;;;;;;;1.93;100.00;97722.08;435502;1256;126425;-65
2023/12/21 05:00:15;;;;;;;;;;;;;;;1.95;100.00;97710.54;435974;1251;125221;-65
2023/12/21 05:10:19;;;;;;;;;;;;;;;1.98;100.00;97698.49;436360;1254;126155;-65
2023/12/21 05:20:24;;;;;;;;;;;;;;;1.99;100.00;97681.35;437135;1251;125992;-65
2023/12/21 05:30:28;;;;;;;;;;;;;;;2.03;100.00;97650.39;435767;1254;126882;-66
2023/12/21 05:40:32;;;;;;;;;;;;;;;2.07;100.00;97638.38;436044;1251;126194;-65
2023/12/21 05:50:37;;;;;;;;;;;;;;;2.13;100.00;97625.27;435810;1251;126167;-64
2023/12/21 06:00:41;;;;;;;;;;;;;;;2.19;100.00;97618.02;436948;1251;125620;-66
2023/12/21 06:10:46;;;;;;;;;;;;;;;2.20;100.00;97603.24;435727;1251;125328;-64
2023/12/21 06:20:50;;;;;;;;;;;;;;;2.23;100.00;97587.34;435761;1251;126127;-66
2023/12/21 06:30:55;;;;;;;;;;;;;;;2.26;100.00;97592.02;435994;1251;126191;-66
2023/12/21 06:40:59;;;;;;;;;;;;;;;2.26;100.00;97578.56;435468;1251;126070;-66
2023/12/21 06:51:04;;;;;;;;;;;;;;;2.26;100.00;97569.61;435848;1253;125600;-65
2023/12/21 07:01:08;;;;;;;;;;;;;;;2.25;100.00;97563.61;436116;1254;125794;-65
2023/12/21 07:11:13;;;;;;;;;;;;;;;2.22;100.00;97560.32;435476;1254;126935;-66
2023/12/21 07:21:17;;;;;;;;;;;;;;;2.22;100.00;97554.30;435956;1253;125483;-65
2023/12/21 07:31:22;;;;;;;;;;;;;;;2.24;100.00;97535.52;436177;1252;125749;-63
2023/12/21 07:41:26;;;;;;;;;;;;;;;2.29;100.00;97522.27;435762;1254;125508;-64
2023/12/21 07:51:31;;;;;;;;;;;;;;;2.37;100.00;97497.39;435121;1252;126379;-64
2023/12/21 08:01:35;;;;;;;;;;;;;;;2.44;100.00;97488.66;436946;1251;126264;-64
2023/12/21 08:11:40;;;;;;;;;;;;;;;2.55;100.00;97471.20;436076;1254;126660;-68
2023/12/21 08:21:44;;;;;;;;;;;;;;;2.65;100.00;97448.95;436478;1252;126040;-77
2023/12/21 08:31:48;;;;;;;;;;;;;;;2.75;100.00;97422.94;436719;1251;125845;-72
2023/12/21 08:41:56;;;;;;;;;;;;;;;2.81;100.00;97394.52;437234;1250;126121;-75
2023/12/21 08:52:01;;;;;;;;;;;;;;;2.93;100.00;97369.73;437896;1251;125688;-66
2023/12/21 09:02:06;;;;;;;;;;;;;;;3.13;100.00;97357.30;437589;1254;126599;-70
2023/12/21 09:12:11;;;;;;;;;;;;;;;3.22;100.00;97349.75;437795;1250;125361;-66
2023/12/21 09:22:15;;;;;;;;;;;;;;;3.27;100.00;97317.60;435285;1254;126601;-79
2023/12/21 09:32:20;;;;;;;;;;;;;;;3.33;100.00;97286.92;437279;1254;125942;-68
2023/12/21 09:42:27;;;;;;;;;;;;;;;3.38;100.00;97262.69;437895;1250;125708;-72
2023/12/21 09:52:33;;;;;;;;;;;;;;;3.43;100.00;97246.73;435210;1254;169001;-64
2023/12/21 10:02:38;;;;;;;;;;;;;;;3.49;100.00;97216.39;436103;1250;125752;-62
2023/12/21 10:12:43;;;;;;;;;;;;;;;3.55;100.00;97186.92;435953;1251;125291;-65
2023/12/21 10:22:48;;;;;;;;;;;;;;;3.67;100.00;97157.47;435850;1253;126603;-65
2023/12/21 10:32:54;;;;;;;;;;;;;;;3.78;100.00;97131.10;435618;1250;126678;-69
2023/12/21 10:43:02;;;;;;;;;;;;;;;3.87;100.00;97105.11;437741;1251;125590;-66
2023/12/21 10:53:09;;;;;;;;;;;;;;;3.94;100.00;97071.16;436291;1254;130119;-76
2023/12/21 11:03:17;;;;;;;;;;;;;;;3.99;100.00;97047.45;440993;1251;125468;-81
2023/12/21 11:13:21;;;;;;;;;;;;;;;4.03;100.00;97023.04;440052;1250;125949;-65
2023/12/21 11:23:26;;;;;;;;;;;;;;;4.10;100.00;96993.79;435848;1251;126222;-66
2023/12/21 11:33:31;;;;;;;;;;;;;;;4.16;100.00;96969.25;437625;1250;126559;-65
2023/12/21 11:43:36;;;;;;;;;;;;;;;4.22;100.00;96938.34;436211;1250;125348;-77
2023/12/21 11:53:41;;;;;;;;;;;;;;;4.24;100.00;96903.30;438688;1254;125625;-71
2023/12/21 12:03:50;;;;;;;;;;;;;;;4.24;100.00;96883.55;437167;1253;126428;-73
2023/12/21 12:13:58;;;;;;;;;;;;;;;4.23;100.00;96859.63;438553;1254;125952;-70
2023/12/21 12:24:03;;;;;;;;;;;;;;;4.18;100.00;96825.52;440287;1253;125200;-75
2023/12/21 12:34:07;;;;;;;;;;;;;;;4.13;100.00;96794.44;437063;1253;125407;-69
2023/12/21 12:44:12;;;;;;;;;;;;;;;4.09;100.00;96768.64;436312;1250;126051;-68
2023/12/21 12:54:17;;;;;;;;;;;;;;;4.05;100.00;96731.85;436850;1250;125808;-63
2023/12/21 13:04:22;;;;;;;;;;;;;;;4.04;100.00;96701.88;436867;1250;125169;-68
2023/12/21 13:14:27;;;;;;;;;;;;;;;4.00;100.00;96675.48;435284;1253;127169;-66
2023/12/21 13:24:31;;;;;;;;;;;;;;;3.97;100.00;96647.40;436288;1251;125230;-67
2023/12/21 13:34:36;;;;;;;;;;;;;;;3.87;100.00;96606.64;436036;1250;125467;-67
2023/12/21 13:44:41;;;;;;;;;;;;;;;3.81;100.00;96578.30;435778;1255;125590;-60
2023/12/21 13:54:46;;;;;;;;;;;;;;;3.76;100.00;96547.08;436691;1251;126354;-63
2023/12/21 14:04:50;;;;;;;;;;;;;;;3.66;100.00;96517.65;435699;1250;126464;-63
2023/12/21 14:14:55;;;;;;;;;;;;;;;3.56;100.00;96491.15;435502;1250;125615;-64
2023/12/21 14:25:00;;;;;;;;;;;;;;;3.46;100.00;96452.48;436522;1250;128738;-63
2023/12/21 14:35:05;;;;;;;;;;;;;;;3.40;100.00;96424.39;437141;1255;127126;-62
2023/12/21 14:45:11;;;;;;;;;;;;;;;3.33;100.00;96393.66;435568;1251;125936;-63
2023/12/21 14:55:17;;;;;;;;;;;;;;;3.24;100.00;96362.23;435800;1250;125533;-63
2023/12/21 15:05:21;;;;;;;;;;;;;;;3.18;100.00;96322.45;435837;1255;126866;-63
2023/12/21 15:15:26;;;;;;;;;;;;;;;3.17;100.00;96289.88;435356;1255;125454;-63
2023/12/21 15:25:30;;;;;;;;;;;;;;;3.19;100.00;96252.07;437144;1253;125722;-63
2023/12/21 15:35:35;;;;;;;;;;;;;;;3.21;100.00;96226.77;434988;1251;137549;-63
2023/12/21 15:45:42;;;;;;;;;;;;;;;3.23;100.00;96188.38;435432;1251;125348;-63
2023/12/21 15:55:46;;;;;;;;;;;;;;;3.26;100.00;96158.08;435458;1251;125296;-63
2023/12/21 16:05:50;;;;;;;;;;;;;;;3.29;100.00;96123.26;435032;1251;128749;-62
2023/12/21 16:15:55;;;;;;;;;;;;;;;3.34;100.00;96095.45;435030;1254;126850;-63
2023/12/21 16:26:00;;;;;;;;;;;;;;;3.40;100.00;96056.25;435112;1251;125786;-62
2023/12/21 16:36:06;;;;;;;;;;;;;;;3.44;100.00;96025.71;435989;1251;126836;-63
2023/12/21 16:46:11;;;;;;;;;;;;;;;3.51;100.00;96003.70;436123;1251;126403;-63
2023/12/21 16:56:15;;;;;;;;;;;;;;;3.58;100.00;95994.42;435481;1255;127216;-62
2023/12/21 17:06:19;;;;;;;;;;;;;;;3.63;100.00;95971.81;435255;1255;125814;-63
2023/12/21 17:16:24;;;;;;;;;;;;;;;3.64;100.00;95956.48;435200;1256;126714;-63
2023/12/21 17:26:29;;;;;;;;;;;;;;;3.67;100.00;95936.83;435264;1256;127003;-65
2023/12/21 17:36:33;;;;;;;;;;;;;;;3.73;100.00;95920.66;435054;1256;126630;-63
2023/12/21 17:46:38;;;;;;;;;;;;;;;3.78;100.00;95894.30;435202;1256;126127;-66
2023/12/21 17:56:42;;;;;;;;;;;;;;;3.79;100.00;95861.61;435591;1255;126367;-63
2023/12/21 18:06:48;;;;;;;;;;;;;;;3.81;100.00;95846.77;435266;1250;125751;-64
2023/12/21 18:16:53;;;;;;;;;;;;;;;3.87;100.00;95824.38;435177;1256;126161;-63
2023/12/21 18:26:58;;;;;;;;;;;;;;;3.94;100.00;95809.02;435557;1256;125829;-63
2023/12/21 18:37:02;;;;;;;;;;;;;;;4.01;100.00;95812.84;436531;1256;126246;-65
2023/12/21 18:47:08;;;;;;;;;;;;;;;4.10;100.00;95793.95;435926;1257;126094;-64
2023/12/21 18:57:13;;;;;;;;;;;;;;;4.21;100.00;95771.09;435619;1256;125911;-64
2023/12/21 19:07:18;;;;;;;;;;;;;;;4.34;100.00;95758.34;437518;1253;125640;-64
2023/12/21 19:17:22;;;;;;;;;;;;;;;4.42;100.00;95740.42;435308;1251;125734;-64
2023/12/21 19:27:26;;;;;;;;;;;;;;;4.46;100.00;95725.12;435276;1255;125587;-65
2023/12/21 19:37:30;;;;;;;;;;;;;;;4.54;100.00;95738.24;435740;1254;125740;-64
2023/12/21 19:47:35;;;;;;;;;;;;;;;4.56;100.00;95714.48;436018;1254;126678;-64
2023/12/21 19:57:39;;;;;;;;;;;;;;;4.61;100.00;95738.52;435322;1251;126579;-62
2023/12/21 20:07:43;;;;;;;;;;;;;;;4.72;100.00;95772.42;435641;1254;125628;-64
2023/12/21 20:17:49;;;;;;;;;;;;;;;4.84;100.00;95796.91;435210;1255;125865;-63
2023/12/21 20:27:54;;;;;;;;;;;;;;;4.84;100.00;95802.60;436647;1254;126292;-64
2023/12/21 20:37:59;;;;;;;;;;;;;;;4.74;100.00;95815.23;436761;1251;125835;-64
2023/12/21 20:48:04;;;;;;;;;;;;;;;4.64;100.00;95829.14;434948;1251;127087;-64
2023/12/21 20:58:08;;;;;;;;;;;;;;;4.60;100.00;95826.48;439794;1251;125570;-65
2023/12/21 21:08:14;;;;;;;;;;;;;;;4.57;100.00;95834.72;435179;1254;126013;-64
2023/12/21 21:18:19;;;;;;;;;;;;;;;4.57;100.00;95861.67;436122;1251;126486;-66
2023/12/21 21:28:23;;;;;;;;;;;;;;;4.58;100.00;95879.96;435152;1254;125998;-65
2023/12/21 21:38:27;;;;;;;;;;;;;;;4.58;100.00;95889.13;435620;1251;126818;-65
2023/12/21 21:48:32;;;;;;;;;;;;;;;4.58;100.00;95891.30;435314;1254;126344;-65
2023/12/21 21:58:36;;;;;;;;;;;;;;;4.50;100.00;95909.85;434958;1254;125769;-63
2023/12/21 22:08:41;;;;;;;;;;;;;;;4.43;100.00;95924.06;436554;1251;126284;-64
2023/12/21 22:18:46;;;;;;;;;;;;;;;4.38;100.00;95937.20;435099;1251;125822;-65
2023/12/21 22:28:51;;;;;;;;;;;;;;;4.26;100.00;95938.98;435499;1254;125583;-65
2023/12/21 22:38:55;;;;;;;;;;;;;;;4.16;100.00;95961.61;435020;1254;126463;-65
2023/12/21 22:49:00;;;;;;;;;;;;;;;3.95;100.00;95960.84;434836;1254;125593;-65
2023/12/21 22:59:04;;;;;;;;;;;;;;;3.78;100.00;95968.29;437019;1250;125938;-65
2023/12/21 23:09:10;;;;;;;;;;;;;;;3.69;100.00;95980.33;435168;1254;125742;-63
2023/12/21 23:19:14;;;;;;;;;;;;;;;3.56;100.00;96002.87;435149;1254;126864;-62
2023/12/21 23:29:18;;;;;;;;;;;;;;;3.58;100.00;96000.61;437030;1250;126450;-64
2023/12/21 23:39:23;;;;;;;;;;;;;;;3.57;100.00;96010.40;435340;1251;126402;-65
2023/12/21 23:49:30;;;;;;;;;;;;;;;3.58;100.00;96016.13;436756;1251;125689;-65
2023/12/21 23:59:34;;;;;;;;;;;;;;;3.50;100.00;96034.73;436176;1251;126985;-65
